createdAt,value
2019-05-22T00:01:44.692Z,99.90
2019-05-22T00:04:33.435Z,99.90
2019-05-22T00:07:05.972Z,99.90
2019-05-22T00:09:42.114Z,99.90
2019-05-22T00:12:15.971Z,99.90
2019-05-22T00:14:52.212Z,99.90
2019-05-22T00:17:27.372Z,99.90
2019-05-22T00:19:58.984Z,99.90
2019-05-22T00:22:32.599Z,99.90
2019-05-22T00:25:04.968Z,99.90
2019-05-22T00:27:39.541Z,99.90
2019-05-22T00:30:14.451Z,99.90
2019-05-22T00:32:50.680Z,99.90
2019-05-22T00:35:27.965Z,99.90
2019-05-22T00:38:00.106Z,99.90
2019-05-22T00:40:32.796Z,99.90
2019-05-22T00:43:10.559Z,99.90
2019-05-22T00:45:38.639Z,99.90
2019-05-22T00:48:11.157Z,99.90
2019-05-22T00:51:01.632Z,99.90
2019-05-22T00:53:51.134Z,99.90
2019-05-22T00:56:40.457Z,99.90
2019-05-22T00:59:22.980Z,99.90
2019-05-22T01:01:55.809Z,99.90
2019-05-22T01:04:43.757Z,99.90
2019-05-22T01:07:18.231Z,99.90
2019-05-22T01:09:59.581Z,99.90
2019-05-22T01:12:33.204Z,99.90
2019-05-22T01:15:08.691Z,99.90
2019-05-22T01:17:41.936Z,99.90
2019-05-22T01:20:21.520Z,99.90
2019-05-22T01:22:53.266Z,99.90
2019-05-22T01:25:27.835Z,99.90
2019-05-22T01:28:02.765Z,99.90
2019-05-22T01:30:42.504Z,99.90
2019-05-22T01:33:34.239Z,99.90
2019-05-22T01:36:06.222Z,99.90
2019-05-22T01:38:40.470Z,99.90
2019-05-22T01:41:28.385Z,99.90
2019-05-22T01:44:04.604Z,99.90
2019-05-22T01:46:37.086Z,99.90
2019-05-22T01:49:10.581Z,99.90
2019-05-22T01:51:40.906Z,99.90
2019-05-22T01:54:12.022Z,99.90
2019-05-22T01:56:42.528Z,99.90
2019-05-22T01:59:13.832Z,99.90
2019-05-22T02:01:45.783Z,99.90
2019-05-22T02:04:18.911Z,99.90
2019-05-22T02:06:51.452Z,99.90
2019-05-22T02:09:31.337Z,99.90
2019-05-22T02:12:13.810Z,99.90
2019-05-22T02:14:51.653Z,99.90
2019-05-22T02:17:29.039Z,99.90
2019-05-22T02:20:00.533Z,99.90
2019-05-22T02:22:32.603Z,99.90
2019-05-22T02:25:03.996Z,99.90
2019-05-22T02:27:37.223Z,99.90
2019-05-22T02:30:11.724Z,99.90
2019-05-22T02:32:43.383Z,99.90
2019-05-22T02:35:14.611Z,99.90
2019-05-22T02:37:45.073Z,99.90
2019-05-22T02:40:26.890Z,99.90
2019-05-22T02:42:58.279Z,99.90
2019-05-22T02:45:30.116Z,99.90
2019-05-22T02:48:07.926Z,99.90
2019-05-22T02:50:39.524Z,99.90
2019-05-22T02:53:15.682Z,99.90
2019-05-22T02:55:50.635Z,99.90
2019-05-22T02:58:22.737Z,99.90
2019-05-22T03:01:03.064Z,99.90
2019-05-22T03:03:34.062Z,99.90
2019-05-22T03:06:07.153Z,99.90
2019-05-22T03:09:02.911Z,99.90
2019-05-22T03:11:42.984Z,99.90
2019-05-22T03:14:14.424Z,99.90
2019-05-22T03:16:54.816Z,99.90
2019-05-22T03:19:36.807Z,99.90
2019-05-22T03:22:34.844Z,99.90
2019-05-22T03:25:09.420Z,99.90
2019-05-22T03:27:47.392Z,99.90
2019-05-22T03:30:34.022Z,99.90
2019-05-22T03:33:12.043Z,99.90
2019-05-22T03:35:47.686Z,99.90
2019-05-22T03:38:20.573Z,99.90
2019-05-22T03:40:53.583Z,99.90
2019-05-22T03:43:28.437Z,99.90
2019-05-22T03:46:00.985Z,99.90
2019-05-22T03:48:37.898Z,99.90
2019-05-22T03:51:14.421Z,99.90
2019-05-22T03:53:47.702Z,99.90
2019-05-22T03:56:20.741Z,99.90
2019-05-22T03:58:50.831Z,99.90
2019-05-22T04:01:22.398Z,99.90
2019-05-22T04:03:53.336Z,99.90
2019-05-22T04:06:24.246Z,99.90
2019-05-22T04:08:54.946Z,99.90
2019-05-22T04:11:29.349Z,99.90
2019-05-22T04:14:01.048Z,99.90
2019-05-22T04:16:32.919Z,99.90
2019-05-22T04:19:03.853Z,99.90
2019-05-22T04:21:33.673Z,99.90
2019-05-22T04:24:06.067Z,99.90
2019-05-22T04:26:35.949Z,99.90
2019-05-22T04:29:06.311Z,99.90
2019-05-22T04:31:59.098Z,99.90
2019-05-22T04:34:30.519Z,99.90
2019-05-22T04:37:00.839Z,99.90
2019-05-22T04:39:32.592Z,99.90
2019-05-22T04:42:04.788Z,99.90
2019-05-22T04:44:38.604Z,99.90
2019-05-22T04:47:11.681Z,99.90
2019-05-22T04:49:42.591Z,99.90
2019-05-22T04:52:15.115Z,99.90
2019-05-22T04:54:46.942Z,99.90
2019-05-22T04:57:18.328Z,99.90
2019-05-22T04:59:49.171Z,99.90
2019-05-22T05:02:20.489Z,99.90
2019-05-22T05:04:53.633Z,99.90
2019-05-22T05:07:25.320Z,99.90
2019-05-22T05:09:56.211Z,99.90
2019-05-22T05:12:27.278Z,99.90
2019-05-22T05:15:06.330Z,99.90
2019-05-22T05:17:41.054Z,99.90
2019-05-22T05:20:22.020Z,99.90
2019-05-22T05:22:48.874Z,99.90
2019-05-22T05:25:25.961Z,99.90
2019-05-22T05:27:56.859Z,99.90
2019-05-22T05:30:32.619Z,99.90
2019-05-22T05:33:08.647Z,99.90
2019-05-22T05:35:42.847Z,99.90
2019-05-22T05:38:14.621Z,99.90
2019-05-22T05:40:51.024Z,99.90
2019-05-22T05:43:30.621Z,99.90
2019-05-22T05:46:10.466Z,99.90
2019-05-22T05:48:42.290Z,99.90
2019-05-22T05:51:21.246Z,99.90
2019-05-22T05:54:04.335Z,99.90
2019-05-22T05:56:41.185Z,99.90
2019-05-22T05:59:18.127Z,99.90
2019-05-22T06:01:49.716Z,99.90
2019-05-22T06:04:36.155Z,99.90
2019-05-22T06:07:29.974Z,99.90
2019-05-22T06:10:43.249Z,99.90
2019-05-22T06:13:18.273Z,99.90
2019-05-22T06:15:55.094Z,99.50
2019-05-22T06:18:40.556Z,99.10
2019-05-22T06:21:10.932Z,98.70
2019-05-22T06:23:46.479Z,98.30
2019-05-22T06:26:35.709Z,97.70
2019-05-22T06:29:05.795Z,97.20
2019-05-22T06:31:57.922Z,96.90
2019-05-22T06:34:28.007Z,96.60
2019-05-22T06:37:02.337Z,95.20
2019-05-22T06:39:33.968Z,95.50
2019-05-22T06:42:05.471Z,95.40
2019-05-22T06:44:36.550Z,94.90
2019-05-22T06:47:08.564Z,94.20
2019-05-22T06:49:41.490Z,93.70
2019-05-22T06:52:11.955Z,93.00
2019-05-22T06:54:43.022Z,92.90
2019-05-22T06:57:15.013Z,92.70
2019-05-22T06:59:46.686Z,92.20
2019-05-22T07:02:18.009Z,92.80
2019-05-22T07:04:49.306Z,92.70
2019-05-22T07:07:21.686Z,91.70
2019-05-22T07:09:51.851Z,92.60
2019-05-22T07:12:23.308Z,92.60
2019-05-22T07:15:12.321Z,92.00
2019-05-22T07:17:42.864Z,91.80
2019-05-22T07:20:15.462Z,91.00
2019-05-22T07:22:46.506Z,89.70
2019-05-22T07:25:16.556Z,90.20
2019-05-22T07:27:46.933Z,90.30
2019-05-22T07:30:18.045Z,89.10
2019-05-22T07:32:48.427Z,90.30
2019-05-22T07:35:18.639Z,90.20
2019-05-22T07:37:49.595Z,89.40
2019-05-22T07:40:21.804Z,88.30
2019-05-22T07:42:54.966Z,87.50
2019-05-22T07:45:28.410Z,87.50
2019-05-22T07:48:01.064Z,86.50
2019-05-22T07:50:32.989Z,84.70
2019-05-22T07:53:07.552Z,84.90
2019-05-22T07:55:38.013Z,82.50
2019-05-22T07:58:16.339Z,82.80
2019-05-22T08:00:55.174Z,82.70
2019-05-22T08:03:27.292Z,80.60
2019-05-22T08:05:59.591Z,81.70
2019-05-22T08:08:33.426Z,81.10
2019-05-22T08:11:05.808Z,80.90
2019-05-22T08:13:37.851Z,80.50
2019-05-22T08:16:09.570Z,79.60
2019-05-22T08:18:41.678Z,79.70
2019-05-22T08:21:12.451Z,79.20
2019-05-22T08:23:43.007Z,78.90
2019-05-22T08:26:15.145Z,77.90
2019-05-22T08:28:45.080Z,78.10
2019-05-22T08:31:16.883Z,77.10
2019-05-22T08:33:47.189Z,76.50
2019-05-22T08:36:19.732Z,74.40
2019-05-22T08:38:50.156Z,74.00
2019-05-22T08:41:27.225Z,75.60
2019-05-22T08:44:14.492Z,75.10
2019-05-22T08:46:31.906Z,72.70
2019-05-22T08:49:03.180Z,74.30
2019-05-22T08:51:33.777Z,73.20
2019-05-22T08:54:06.014Z,74.10
2019-05-22T08:56:42.835Z,74.50
2019-05-22T08:59:19.545Z,74.10
2019-05-22T09:01:47.227Z,72.70
2019-05-22T09:04:17.386Z,72.40
2019-05-22T09:06:48.723Z,70.30
2019-05-22T09:09:18.851Z,70.80
2019-05-22T09:11:48.644Z,73.00
2019-05-22T09:14:20.690Z,72.30
2019-05-22T09:16:51.036Z,71.80
2019-05-22T09:19:27.873Z,72.00
2019-05-22T09:21:59.256Z,69.10
2019-05-22T09:24:33.797Z,71.10
2019-05-22T09:27:05.543Z,71.50
2019-05-22T09:29:35.753Z,72.00
2019-05-22T09:32:07.527Z,72.70
2019-05-22T09:34:38.623Z,73.20
2019-05-22T09:37:08.626Z,73.60
2019-05-22T09:39:38.903Z,75.40
2019-05-22T09:42:10.454Z,74.00
2019-05-22T09:44:41.858Z,73.10
2019-05-22T09:47:12.952Z,74.10
2019-05-22T09:49:43.818Z,73.70
2019-05-22T09:52:14.667Z,72.80
2019-05-22T09:54:57.863Z,73.70
2019-05-22T09:57:28.429Z,74.20
2019-05-22T09:59:58.314Z,74.10
2019-05-22T10:02:31.205Z,74.00
2019-05-22T10:05:01.027Z,74.90
2019-05-22T10:07:32.373Z,75.60
2019-05-22T10:10:04.431Z,75.80
2019-05-22T10:12:52.592Z,76.70
2019-05-22T10:15:42.571Z,76.60
2019-05-22T10:18:13.895Z,77.10
2019-05-22T10:20:45.962Z,76.80
2019-05-22T10:23:16.566Z,76.60
2019-05-22T10:25:47.816Z,76.70
2019-05-22T10:28:17.886Z,78.10
2019-05-22T10:30:48.049Z,77.50
2019-05-22T10:33:19.730Z,77.10
2019-05-22T10:35:51.258Z,77.80
2019-05-22T10:38:25.097Z,78.20
2019-05-22T10:40:59.151Z,78.40
2019-05-22T10:43:32.712Z,77.80
2019-05-22T10:46:09.790Z,77.50
2019-05-22T10:48:40.881Z,76.70
2019-05-22T10:51:11.245Z,76.60
2019-05-22T10:53:46.825Z,76.90
2019-05-22T10:56:17.637Z,78.20
2019-05-22T10:58:48.925Z,77.60
2019-05-22T11:01:18.913Z,77.80
2019-05-22T11:03:51.511Z,76.80
2019-05-22T11:06:24.302Z,77.20
2019-05-22T11:08:55.826Z,77.50
2019-05-22T11:11:28.967Z,77.90
2019-05-22T11:14:09.632Z,77.90
2019-05-22T11:19:32.247Z,77.80
2019-05-22T11:22:02.608Z,78.20
2019-05-22T11:24:36.794Z,77.90
2019-05-22T11:27:11.463Z,78.00
2019-05-22T11:29:46.363Z,77.60
2019-05-22T11:32:18.314Z,76.60
2019-05-22T11:34:54.631Z,75.90
2019-05-22T11:37:26.088Z,77.00
2019-05-22T11:39:56.218Z,77.30
2019-05-22T11:42:30.700Z,75.50
2019-05-22T11:45:01.155Z,76.20
2019-05-22T11:47:35.911Z,74.60
2019-05-22T11:50:11.368Z,74.70
2019-05-22T11:52:48.046Z,73.70
2019-05-22T11:55:21.536Z,73.20
2019-05-22T11:57:53.145Z,73.00
2019-05-22T12:00:25.199Z,73.20
2019-05-22T12:02:56.709Z,73.40
2019-05-22T12:05:28.435Z,73.40
2019-05-22T12:08:00.019Z,73.30
2019-05-22T12:10:31.845Z,72.10
2019-05-22T12:13:05.039Z,72.20
2019-05-22T12:15:37.606Z,72.30
2019-05-22T12:18:13.875Z,71.90
2019-05-22T12:20:43.978Z,72.00
2019-05-22T12:23:39.850Z,70.60
2019-05-22T12:26:15.839Z,70.00
2019-05-22T12:28:54.997Z,69.40
2019-05-22T12:31:29.827Z,66.40
2019-05-22T12:34:04.545Z,67.70
2019-05-22T12:36:43.977Z,68.30
2019-05-22T12:39:12.625Z,67.40
2019-05-22T12:41:48.020Z,64.70
2019-05-22T12:44:30.113Z,65.60
2019-05-22T12:47:09.488Z,63.20
2019-05-22T12:49:58.335Z,63.70
2019-05-22T12:55:16.814Z,64.70
2019-05-22T12:57:51.193Z,64.80
2019-05-22T13:00:29.626Z,63.40
2019-05-22T13:03:08.297Z,63.80
2019-05-22T13:05:41.167Z,61.00
2019-05-22T13:08:17.995Z,59.90
2019-05-22T13:10:54.110Z,61.40
2019-05-22T13:13:27.262Z,60.40
2019-05-22T13:16:20.481Z,60.20
2019-05-22T13:18:53.448Z,58.50
2019-05-22T13:21:32.475Z,59.20
2019-05-22T13:24:27.918Z,59.80
2019-05-22T13:27:06.339Z,58.20
2019-05-22T13:29:46.235Z,58.10
2019-05-22T13:32:19.934Z,59.40
2019-05-22T13:34:55.082Z,59.10
2019-05-22T13:37:28.998Z,59.70
2019-05-22T13:40:26.745Z,60.50
2019-05-22T13:42:49.462Z,62.60
2019-05-22T13:45:29.402Z,64.20
2019-05-22T13:50:49.124Z,61.20
2019-05-22T13:53:24.225Z,61.60
2019-05-22T13:55:56.179Z,62.00
2019-05-22T13:58:44.084Z,63.40
2019-05-22T14:01:17.168Z,64.50
2019-05-22T14:03:47.783Z,65.00
2019-05-22T14:06:34.203Z,64.40
2019-05-22T14:12:03.965Z,63.70
2019-05-22T14:14:39.017Z,63.70
2019-05-22T14:17:13.171Z,62.80
2019-05-22T14:19:43.879Z,61.90
2019-05-22T14:22:25.395Z,60.40
2019-05-22T14:28:20.021Z,61.60
2019-05-22T14:30:51.611Z,62.30
2019-05-22T14:33:49.419Z,60.80
2019-05-22T14:36:38.713Z,61.30
2019-05-22T14:39:17.350Z,60.00
2019-05-22T14:47:57.185Z,59.80
2019-05-22T14:56:21.305Z,57.30
2019-05-22T15:02:14.870Z,57.60
2019-05-22T15:05:10.449Z,57.90
2019-05-22T15:08:11.710Z,58.00
2019-05-22T15:13:56.559Z,55.20
2019-05-22T15:16:43.568Z,55.10
2019-05-22T15:19:16.806Z,52.60
2019-05-22T15:21:51.235Z,51.60
2019-05-22T15:24:33.482Z,51.00
2019-05-22T15:27:06.402Z,49.90
2019-05-22T15:29:38.418Z,48.30
2019-05-22T15:32:13.018Z,48.20
2019-05-22T15:38:23.589Z,50.80
2019-05-22T15:40:57.463Z,51.40
2019-05-22T15:43:32.363Z,51.40
2019-05-22T15:46:10.450Z,51.10
2019-05-22T15:51:43.360Z,50.30
2019-05-22T15:54:21.106Z,49.50
2019-05-22T15:56:57.614Z,50.40
2019-05-22T15:59:30.095Z,52.00
2019-05-22T16:05:03.526Z,50.70
2019-05-22T16:10:45.998Z,52.20
2019-05-22T16:13:34.707Z,52.60
2019-05-22T16:16:11.670Z,52.90
2019-05-22T16:33:42.931Z,55.10
2019-05-22T16:36:22.723Z,55.50
2019-05-22T16:41:52.594Z,56.30
2019-05-22T16:44:28.049Z,56.60
2019-05-22T16:49:54.027Z,56.60
2019-05-22T16:52:38.796Z,56.70
2019-05-22T16:55:13.019Z,57.20
2019-05-22T16:57:44.418Z,57.20
2019-05-22T17:00:18.017Z,57.70
2019-05-22T17:02:52.214Z,57.50
2019-05-22T17:05:26.018Z,56.80
2019-05-22T17:07:59.820Z,55.40
2019-05-22T17:10:32.780Z,55.10
2019-05-22T17:13:06.266Z,54.70
2019-05-22T17:15:40.997Z,54.90
2019-05-22T17:18:14.405Z,55.10
2019-05-22T17:20:51.368Z,55.20
2019-05-22T17:26:27.915Z,54.40
2019-05-22T17:29:04.563Z,54.10
2019-05-22T17:31:38.518Z,54.10
2019-05-22T17:34:29.280Z,54.00
2019-05-22T17:37:01.483Z,54.90
2019-05-22T17:39:38.863Z,55.30
2019-05-22T17:42:15.363Z,55.10
2019-05-22T17:45:07.505Z,54.90
2019-05-22T17:47:43.042Z,54.80
2019-05-22T17:50:26.672Z,55.10
2019-05-22T17:52:58.386Z,54.60
2019-05-22T17:55:31.233Z,54.70
2019-05-22T17:58:07.326Z,54.90
2019-05-22T18:00:40.301Z,54.60
2019-05-22T18:03:11.145Z,54.50
2019-05-22T18:05:42.670Z,54.60
2019-05-22T18:08:21.535Z,54.80
2019-05-22T18:10:51.718Z,55.20
2019-05-22T18:13:30.989Z,55.50
2019-05-22T18:16:05.756Z,55.40
2019-05-22T18:18:38.632Z,55.70
2019-05-22T18:21:10.776Z,56.00
2019-05-22T18:40:16.156Z,57.50
2019-05-22T18:42:46.750Z,57.40
2019-05-22T18:45:18.747Z,57.40
2019-05-22T18:47:50.806Z,57.20
2019-05-22T18:50:22.968Z,57.20
2019-05-22T18:52:53.321Z,56.60
2019-05-22T18:55:24.894Z,56.90
2019-05-22T18:57:54.917Z,57.00
2019-05-22T19:00:26.796Z,57.20
2019-05-22T19:02:57.278Z,57.30
2019-05-22T19:05:32.054Z,57.40
2019-05-22T19:08:02.626Z,57.30
2019-05-22T19:10:33.094Z,57.60
2019-05-22T19:13:03.862Z,57.80
2019-05-22T19:21:28.844Z,58.40
2019-05-22T19:24:00.134Z,58.60
2019-05-22T19:26:32.140Z,59.00
2019-05-22T19:29:02.209Z,59.50
2019-05-22T19:31:34.207Z,59.40
2019-05-22T19:34:07.567Z,59.70
2019-05-22T19:36:37.633Z,59.60
2019-05-22T19:39:10.333Z,59.80
2019-05-22T19:41:42.727Z,60.00
2019-05-22T19:44:15.478Z,60.10
2019-05-22T19:46:45.736Z,60.40
2019-05-22T19:49:16.794Z,60.90
2019-05-22T19:51:47.534Z,60.80
2019-05-22T19:54:20.446Z,61.30
2019-05-22T19:56:52.230Z,62.50
2019-05-22T19:59:24.768Z,61.50
2019-05-22T20:01:56.527Z,61.60
2019-05-22T20:04:38.415Z,61.80
2019-05-22T20:07:09.714Z,62.10
2019-05-22T20:09:39.811Z,62.60
2019-05-22T20:12:18.007Z,62.90
2019-05-22T20:14:50.612Z,63.20
2019-05-22T20:17:20.649Z,63.80
2019-05-22T20:20:02.781Z,64.00
2019-05-22T20:22:33.581Z,64.50
2019-05-22T20:25:05.977Z,64.90
2019-05-22T20:27:36.965Z,65.40
2019-05-22T20:30:09.857Z,65.80
2019-05-22T20:32:41.242Z,66.40
2019-05-22T20:35:14.336Z,66.70
2019-05-22T20:38:06.282Z,67.20
2019-05-22T20:40:36.901Z,67.50
2019-05-22T20:43:13.750Z,67.80
2019-05-22T20:45:45.969Z,68.30
2019-05-22T20:48:26.986Z,68.50
2019-05-22T20:51:01.381Z,68.80
2019-05-22T20:53:52.458Z,69.40
2019-05-22T20:56:10.574Z,70.00
2019-05-22T20:58:41.011Z,70.50
2019-05-22T21:01:13.755Z,70.80
2019-05-22T21:03:46.824Z,71.40
2019-05-22T21:06:17.395Z,71.40
2019-05-22T21:08:48.767Z,71.60
2019-05-22T21:11:24.242Z,71.90
2019-05-22T21:13:57.874Z,72.00
2019-05-22T21:16:30.761Z,72.10
2019-05-22T21:19:03.205Z,72.20
2019-05-22T21:21:34.754Z,73.00
2019-05-22T21:24:11.235Z,73.60
2019-05-22T21:26:40.243Z,73.90
2019-05-22T21:29:10.342Z,74.50
2019-05-22T21:31:41.839Z,74.80
2019-05-22T21:34:12.942Z,75.70
2019-05-22T21:36:43.454Z,75.90
2019-05-22T21:39:14.265Z,76.30
2019-05-22T21:41:45.466Z,77.20
2019-05-22T21:44:15.451Z,76.90
2019-05-22T21:46:46.445Z,77.20
2019-05-22T21:49:19.549Z,77.60
2019-05-22T21:51:50.442Z,78.10
2019-05-22T21:54:20.654Z,78.40
2019-05-22T21:56:51.239Z,78.90
2019-05-22T21:59:21.128Z,79.30
2019-05-22T22:01:52.547Z,79.80
2019-05-22T22:04:41.992Z,80.10
2019-05-22T22:07:13.301Z,80.40
2019-05-22T22:09:44.552Z,80.00
2019-05-22T22:12:19.409Z,81.70
2019-05-22T22:14:51.519Z,82.00
2019-05-22T22:17:25.070Z,82.20
2019-05-22T22:19:54.959Z,82.70
2019-05-22T22:22:28.331Z,83.10
2019-05-22T22:25:01.568Z,83.70
2019-05-22T22:27:35.282Z,84.40
2019-05-22T22:30:24.409Z,84.70
2019-05-22T22:32:53.174Z,84.70
2019-05-22T22:35:25.839Z,85.70
2019-05-22T22:37:57.112Z,86.50
2019-05-22T22:40:32.242Z,86.40
2019-05-22T22:43:07.391Z,86.80
2019-05-22T22:45:44.103Z,87.10
2019-05-22T22:48:32.147Z,87.40
2019-05-22T22:51:03.730Z,88.00
2019-05-22T22:53:36.357Z,88.20
2019-05-22T23:02:00.693Z,89.10
2019-05-22T23:04:41.032Z,89.30
2019-05-22T23:07:12.996Z,89.50
2019-05-22T23:09:47.030Z,89.80
2019-05-22T23:12:19.979Z,90.00
2019-05-22T23:14:57.328Z,90.50
2019-05-22T23:17:30.323Z,90.40
2019-05-22T23:20:02.961Z,90.60
2019-05-22T23:22:32.217Z,91.10
2019-05-22T23:25:04.426Z,90.80
2019-05-22T23:27:37.884Z,90.90
2019-05-22T23:30:11.206Z,91.10
2019-05-22T23:32:42.655Z,91.30
2019-05-22T23:35:14.152Z,91.30
2019-05-22T23:37:45.590Z,91.30
2019-05-22T23:40:20.811Z,91.50
2019-05-22T23:42:51.929Z,91.50
2019-05-22T23:45:23.724Z,91.70
2019-05-22T23:48:04.221Z,91.90
2019-05-22T23:50:37.190Z,92.20
2019-05-22T23:53:08.980Z,92.20
2019-05-22T23:55:41.256Z,92.20
2019-05-22T23:58:13.553Z,92.30
